sensor_id;sensor_type;location;lat;lon;timestamp;P1;durP1;ratioP1;P2;durP2;ratioP2
20861;SDS011;10591;52.532;13.348;2022-11-28T00:00:10;18.10;;;11.97;;
20861;SDS011;10591;52.532;13.348;2022-11-28T00:02:42;19.77;;;11.13;;
20861;SDS011;10591;52.532;13.348;2022-11-28T00:05:13;19.73;;;12.33;;
20861;SDS011;10591;52.532;13.348;2022-11-28T00:07:44;20.52;;;12.10;;
20861;SDS011;10591;52.532;13.348;2022-11-28T00:10:15;18.40;;;12.70;;
20861;SDS011;10591;52.532;13.348;2022-11-28T00:12:45;16.82;;;12.10;;
20861;SDS011;10591;52.532;13.348;2022-11-28T00:15:17;18.80;;;12.60;;
20861;SDS011;10591;52.532;13.348;2022-11-28T00:17:47;18.77;;;12.35;;
20861;SDS011;10591;52.532;13.348;2022-11-28T00:20:18;17.57;;;11.70;;
20861;SDS011;10591;52.532;13.348;2022-11-28T00:22:48;19.40;;;12.33;;
20861;SDS011;10591;52.532;13.348;2022-11-28T00:25:19;18.97;;;11.80;;
20861;SDS011;10591;52.532;13.348;2022-11-28T00:27:51;16.75;;;12.23;;
20861;SDS011;10591;52.532;13.348;2022-11-28T00:30:22;18.23;;;11.23;;
20861;SDS011;10591;52.532;13.348;2022-11-28T00:32:54;19.27;;;12.80;;
20861;SDS011;10591;52.532;13.348;2022-11-28T00:35:24;23.57;;;12.70;;
20861;SDS011;10591;52.532;13.348;2022-11-28T00:37:56;19.80;;;12.70;;
20861;SDS011;10591;52.532;13.348;2022-11-28T00:40:27;23.10;;;11.43;;
20861;SDS011;10591;52.532;13.348;2022-11-28T00:42:57;21.17;;;13.15;;
20861;SDS011;10591;52.532;13.348;2022-11-28T00:45:28;23.60;;;13.03;;
20861;SDS011;10591;52.532;13.348;2022-11-28T00:47:59;21.03;;;13.83;;
20861;SDS011;10591;52.532;13.348;2022-11-28T00:50:30;21.10;;;13.57;;
20861;SDS011;10591;52.532;13.348;2022-11-28T00:53:01;23.63;;;14.40;;
20861;SDS011;10591;52.532;13.348;2022-11-28T00:55:31;20.80;;;13.50;;
20861;SDS011;10591;52.532;13.348;2022-11-28T00:58:02;22.80;;;14.10;;
20861;SDS011;10591;52.532;13.348;2022-11-28T01:00:34;21.37;;;14.80;;
20861;SDS011;10591;52.532;13.348;2022-11-28T01:03:05;22.50;;;13.47;;
20861;SDS011;10591;52.532;13.348;2022-11-28T01:05:40;23.83;;;14.40;;
20861;SDS011;10591;52.532;13.348;2022-11-28T01:08:12;22.13;;;14.17;;
20861;SDS011;10591;52.532;13.348;2022-11-28T01:10:44;25.23;;;15.03;;
20861;SDS011;10591;52.532;13.348;2022-11-28T01:13:15;22.67;;;15.10;;
20861;SDS011;10591;52.532;13.348;2022-11-28T01:15:46;22.70;;;15.03;;
20861;SDS011;10591;52.532;13.348;2022-11-28T01:18:17;20.60;;;14.63;;
20861;SDS011;10591;52.532;13.348;2022-11-28T01:20:49;19.90;;;14.37;;
20861;SDS011;10591;52.532;13.348;2022-11-28T01:23:19;26.00;;;15.50;;
20861;SDS011;10591;52.532;13.348;2022-11-28T01:25:50;22.98;;;14.15;;
20861;SDS011;10591;52.532;13.348;2022-11-28T01:28:20;24.80;;;14.80;;
20861;SDS011;10591;52.532;13.348;2022-11-28T01:30:51;22.53;;;15.03;;
20861;SDS011;10591;52.532;13.348;2022-11-28T01:33:22;20.70;;;13.93;;
20861;SDS011;10591;52.532;13.348;2022-11-28T01:35:53;23.13;;;14.73;;
20861;SDS011;10591;52.532;13.348;2022-11-28T01:38:25;23.60;;;15.10;;
20861;SDS011;10591;52.532;13.348;2022-11-28T01:40:56;23.93;;;14.87;;
20861;SDS011;10591;52.532;13.348;2022-11-28T01:43:27;21.83;;;14.70;;
20861;SDS011;10591;52.532;13.348;2022-11-28T01:45:58;22.35;;;14.75;;
20861;SDS011;10591;52.532;13.348;2022-11-28T01:48:31;20.90;;;12.83;;
20861;SDS011;10591;52.532;13.348;2022-11-28T01:51:04;22.13;;;15.37;;
20861;SDS011;10591;52.532;13.348;2022-11-28T01:53:40;21.00;;;13.63;;
20861;SDS011;10591;52.532;13.348;2022-11-28T01:56:18;20.07;;;14.47;;
20861;SDS011;10591;52.532;13.348;2022-11-28T01:58:50;21.37;;;14.33;;
20861;SDS011;10591;52.532;13.348;2022-11-28T02:01:23;23.60;;;14.80;;
20861;SDS011;10591;52.532;13.348;2022-11-28T02:03:54;21.43;;;14.37;;
20861;SDS011;10591;52.532;13.348;2022-11-28T02:06:27;23.20;;;14.77;;
20861;SDS011;10591;52.532;13.348;2022-11-28T02:08:59;22.15;;;14.47;;
20861;SDS011;10591;52.532;13.348;2022-11-28T02:11:44;19.50;;;13.80;;
20861;SDS011;10591;52.532;13.348;2022-11-28T02:14:36;20.80;;;14.03;;
20861;SDS011;10591;52.532;13.348;2022-11-28T02:17:39;20.23;;;13.43;;
20861;SDS011;10591;52.532;13.348;2022-11-28T02:22:59;20.53;;;13.70;;
20861;SDS011;10591;52.532;13.348;2022-11-28T02:29:01;20.77;;;12.97;;
20861;SDS011;10591;52.532;13.348;2022-11-28T02:34:11;20.20;;;12.45;;
20861;SDS011;10591;52.532;13.348;2022-11-28T02:36:46;17.80;;;11.57;;
20861;SDS011;10591;52.532;13.348;2022-11-28T02:39:27;17.97;;;12.17;;
20861;SDS011;10591;52.532;13.348;2022-11-28T02:42:28;18.43;;;13.23;;
20861;SDS011;10591;52.532;13.348;2022-11-28T02:45:26;20.07;;;12.90;;
20861;SDS011;10591;52.532;13.348;2022-11-28T02:48:03;18.60;;;12.87;;
20861;SDS011;10591;52.532;13.348;2022-11-28T02:50:36;19.73;;;11.53;;
20861;SDS011;10591;52.532;13.348;2022-11-28T02:53:15;21.40;;;13.50;;
20861;SDS011;10591;52.532;13.348;2022-11-28T02:55:43;19.23;;;11.33;;
20861;SDS011;10591;52.532;13.348;2022-11-28T02:58:14;18.30;;;12.77;;
20861;SDS011;10591;52.532;13.348;2022-11-28T03:00:48;18.57;;;12.33;;
20861;SDS011;10591;52.532;13.348;2022-11-28T03:17:26;20.03;;;12.50;;
20861;SDS011;10591;52.532;13.348;2022-11-28T03:20:22;20.80;;;12.97;;
20861;SDS011;10591;52.532;13.348;2022-11-28T03:25:55;19.13;;;12.30;;
20861;SDS011;10591;52.532;13.348;2022-11-28T03:31:10;18.60;;;12.93;;
20861;SDS011;10591;52.532;13.348;2022-11-28T03:33:57;20.97;;;12.67;;
20861;SDS011;10591;52.532;13.348;2022-11-28T03:36:26;18.63;;;11.60;;
20861;SDS011;10591;52.532;13.348;2022-11-28T03:39:03;22.50;;;13.60;;
20861;SDS011;10591;52.532;13.348;2022-11-28T03:41:41;22.00;;;13.00;;
20861;SDS011;10591;52.532;13.348;2022-11-28T03:44:19;20.57;;;13.03;;
20861;SDS011;10591;52.532;13.348;2022-11-28T03:46:51;19.40;;;12.73;;
20861;SDS011;10591;52.532;13.348;2022-11-28T03:49:29;20.70;;;12.53;;
20861;SDS011;10591;52.532;13.348;2022-11-28T03:52:07;19.87;;;12.80;;
20861;SDS011;10591;52.532;13.348;2022-11-28T03:57:37;21.03;;;12.40;;
20861;SDS011;10591;52.532;13.348;2022-11-28T04:00:14;20.47;;;13.10;;
20861;SDS011;10591;52.532;13.348;2022-11-28T04:02:57;21.27;;;12.83;;
20861;SDS011;10591;52.532;13.348;2022-11-28T04:05:47;21.83;;;12.33;;
20861;SDS011;10591;52.532;13.348;2022-11-28T04:08:36;21.77;;;13.20;;
20861;SDS011;10591;52.532;13.348;2022-11-28T04:13:55;22.73;;;12.10;;
20861;SDS011;10591;52.532;13.348;2022-11-28T04:16:32;22.93;;;12.58;;
20861;SDS011;10591;52.532;13.348;2022-11-28T04:22:18;22.77;;;14.00;;
20861;SDS011;10591;52.532;13.348;2022-11-28T04:25:06;23.57;;;12.77;;
20861;SDS011;10591;52.532;13.348;2022-11-28T04:27:39;23.73;;;14.00;;
20861;SDS011;10591;52.532;13.348;2022-11-28T04:30:14;24.27;;;14.10;;
20861;SDS011;10591;52.532;13.348;2022-11-28T04:32:47;21.70;;;13.00;;
20861;SDS011;10591;52.532;13.348;2022-11-28T04:35:27;24.37;;;14.23;;
20861;SDS011;10591;52.532;13.348;2022-11-28T04:38:02;23.40;;;14.33;;
20861;SDS011;10591;52.532;13.348;2022-11-28T04:40:37;25.57;;;13.17;;
20861;SDS011;10591;52.532;13.348;2022-11-28T04:43:09;22.20;;;13.47;;
20861;SDS011;10591;52.532;13.348;2022-11-28T04:45:43;25.17;;;14.57;;
20861;SDS011;10591;52.532;13.348;2022-11-28T04:48:17;21.73;;;13.70;;
20861;SDS011;10591;52.532;13.348;2022-11-28T04:50:58;25.23;;;14.07;;
20861;SDS011;10591;52.532;13.348;2022-11-28T04:53:47;23.60;;;13.70;;
20861;SDS011;10591;52.532;13.348;2022-11-28T04:56:22;23.10;;;13.83;;
20861;SDS011;10591;52.532;13.348;2022-11-28T04:58:51;20.90;;;12.67;;
20861;SDS011;10591;52.532;13.348;2022-11-28T05:01:23;25.07;;;13.13;;
20861;SDS011;10591;52.532;13.348;2022-11-28T05:03:55;19.90;;;12.73;;
20861;SDS011;10591;52.532;13.348;2022-11-28T05:06:27;25.57;;;14.70;;
20861;SDS011;10591;52.532;13.348;2022-11-28T05:08:59;19.60;;;12.53;;
20861;SDS011;10591;52.532;13.348;2022-11-28T05:11:30;23.18;;;13.15;;
20861;SDS011;10591;52.532;13.348;2022-11-28T05:14:01;21.67;;;12.57;;
20861;SDS011;10591;52.532;13.348;2022-11-28T05:16:32;23.20;;;13.23;;
20861;SDS011;10591;52.532;13.348;2022-11-28T05:19:03;20.07;;;12.60;;
20861;SDS011;10591;52.532;13.348;2022-11-28T05:21:33;21.50;;;13.33;;
20861;SDS011;10591;52.532;13.348;2022-11-28T05:24:05;21.87;;;12.60;;
20861;SDS011;10591;52.532;13.348;2022-11-28T05:26:38;20.43;;;11.60;;
20861;SDS011;10591;52.532;13.348;2022-11-28T05:29:10;20.20;;;12.82;;
20861;SDS011;10591;52.532;13.348;2022-11-28T05:31:42;20.30;;;13.83;;
20861;SDS011;10591;52.532;13.348;2022-11-28T05:34:13;19.80;;;12.55;;
20861;SDS011;10591;52.532;13.348;2022-11-28T05:36:44;21.73;;;13.20;;
20861;SDS011;10591;52.532;13.348;2022-11-28T05:39:15;19.37;;;12.13;;
20861;SDS011;10591;52.532;13.348;2022-11-28T05:41:46;20.80;;;12.30;;
20861;SDS011;10591;52.532;13.348;2022-11-28T05:44:17;22.30;;;11.97;;
20861;SDS011;10591;52.532;13.348;2022-11-28T05:46:52;23.50;;;13.22;;
20861;SDS011;10591;52.532;13.348;2022-11-28T05:49:22;20.97;;;13.37;;
20861;SDS011;10591;52.532;13.348;2022-11-28T05:51:54;23.75;;;13.88;;
20861;SDS011;10591;52.532;13.348;2022-11-28T05:54:24;20.33;;;13.30;;
20861;SDS011;10591;52.532;13.348;2022-11-28T05:56:55;20.80;;;11.45;;
20861;SDS011;10591;52.532;13.348;2022-11-28T05:59:26;19.10;;;12.53;;
20861;SDS011;10591;52.532;13.348;2022-11-28T06:01:56;22.87;;;13.27;;
20861;SDS011;10591;52.532;13.348;2022-11-28T06:04:27;23.35;;;12.68;;
20861;SDS011;10591;52.532;13.348;2022-11-28T06:06:58;23.87;;;14.57;;
20861;SDS011;10591;52.532;13.348;2022-11-28T06:09:28;19.23;;;12.87;;
20861;SDS011;10591;52.532;13.348;2022-11-28T06:11:58;20.80;;;13.20;;
20861;SDS011;10591;52.532;13.348;2022-11-28T06:14:29;22.60;;;12.50;;
20861;SDS011;10591;52.532;13.348;2022-11-28T06:17:00;21.80;;;13.33;;
20861;SDS011;10591;52.532;13.348;2022-11-28T06:19:31;22.20;;;12.90;;
20861;SDS011;10591;52.532;13.348;2022-11-28T06:22:03;21.20;;;13.83;;
20861;SDS011;10591;52.532;13.348;2022-11-28T06:24:33;22.93;;;13.23;;
20861;SDS011;10591;52.532;13.348;2022-11-28T06:27:04;24.07;;;13.73;;
20861;SDS011;10591;52.532;13.348;2022-11-28T06:29:35;21.10;;;13.77;;
20861;SDS011;10591;52.532;13.348;2022-11-28T06:32:07;22.80;;;14.33;;
20861;SDS011;10591;52.532;13.348;2022-11-28T06:34:37;24.47;;;13.43;;
20861;SDS011;10591;52.532;13.348;2022-11-28T06:37:08;25.57;;;14.13;;
20861;SDS011;10591;52.532;13.348;2022-11-28T06:39:39;21.45;;;12.68;;
20861;SDS011;10591;52.532;13.348;2022-11-28T06:42:09;22.10;;;12.97;;
20861;SDS011;10591;52.532;13.348;2022-11-28T06:44:42;25.45;;;14.45;;
20861;SDS011;10591;52.532;13.348;2022-11-28T06:47:14;23.20;;;14.20;;
20861;SDS011;10591;52.532;13.348;2022-11-28T06:49:44;26.23;;;14.80;;
20861;SDS011;10591;52.532;13.348;2022-11-28T06:52:17;26.30;;;14.40;;
20861;SDS011;10591;52.532;13.348;2022-11-28T06:54:48;27.00;;;14.07;;
20861;SDS011;10591;52.532;13.348;2022-11-28T06:57:21;25.97;;;14.33;;
20861;SDS011;10591;52.532;13.348;2022-11-28T06:59:51;24.27;;;15.20;;
20861;SDS011;10591;52.532;13.348;2022-11-28T07:02:21;25.93;;;15.27;;
20861;SDS011;10591;52.532;13.348;2022-11-28T07:04:53;26.63;;;15.10;;
20861;SDS011;10591;52.532;13.348;2022-11-28T07:07:23;27.90;;;16.13;;
20861;SDS011;10591;52.532;13.348;2022-11-28T07:09:54;27.57;;;14.17;;
20861;SDS011;10591;52.532;13.348;2022-11-28T07:12:24;26.50;;;15.00;;
20861;SDS011;10591;52.532;13.348;2022-11-28T07:14:58;23.47;;;14.57;;
20861;SDS011;10591;52.532;13.348;2022-11-28T07:17:29;25.27;;;16.23;;
20861;SDS011;10591;52.532;13.348;2022-11-28T07:20:00;25.97;;;16.03;;
20861;SDS011;10591;52.532;13.348;2022-11-28T07:22:30;30.87;;;15.63;;
20861;SDS011;10591;52.532;13.348;2022-11-28T07:25:01;26.13;;;14.43;;
20861;SDS011;10591;52.532;13.348;2022-11-28T07:27:32;27.20;;;14.00;;
20861;SDS011;10591;52.532;13.348;2022-11-28T07:30:02;31.42;;;16.27;;
20861;SDS011;10591;52.532;13.348;2022-11-28T07:32:34;30.53;;;16.20;;
20861;SDS011;10591;52.532;13.348;2022-11-28T07:35:08;25.97;;;15.70;;
20861;SDS011;10591;52.532;13.348;2022-11-28T07:37:39;29.67;;;16.80;;
20861;SDS011;10591;52.532;13.348;2022-11-28T07:40:10;26.63;;;16.50;;
20861;SDS011;10591;52.532;13.348;2022-11-28T07:42:46;29.50;;;16.13;;
20861;SDS011;10591;52.532;13.348;2022-11-28T07:45:16;26.82;;;15.23;;
20861;SDS011;10591;52.532;13.348;2022-11-28T07:47:50;24.47;;;14.87;;
20861;SDS011;10591;52.532;13.348;2022-11-28T07:50:23;26.45;;;15.80;;
20861;SDS011;10591;52.532;13.348;2022-11-28T07:52:55;29.07;;;16.17;;
20861;SDS011;10591;52.532;13.348;2022-11-28T07:55:29;24.13;;;13.80;;
20861;SDS011;10591;52.532;13.348;2022-11-28T07:58:02;27.83;;;15.30;;
20861;SDS011;10591;52.532;13.348;2022-11-28T08:00:33;27.87;;;16.33;;
20861;SDS011;10591;52.532;13.348;2022-11-28T08:03:07;30.50;;;14.50;;
20861;SDS011;10591;52.532;13.348;2022-11-28T08:05:38;26.00;;;15.13;;
20861;SDS011;10591;52.532;13.348;2022-11-28T08:08:09;28.03;;;16.20;;
20861;SDS011;10591;52.532;13.348;2022-11-28T08:10:40;26.07;;;15.17;;
20861;SDS011;10591;52.532;13.348;2022-11-28T08:13:11;24.10;;;14.70;;
20861;SDS011;10591;52.532;13.348;2022-11-28T08:15:43;29.30;;;16.13;;
20861;SDS011;10591;52.532;13.348;2022-11-28T08:18:14;25.07;;;14.90;;
20861;SDS011;10591;52.532;13.348;2022-11-28T08:20:45;26.80;;;16.80;;
20861;SDS011;10591;52.532;13.348;2022-11-28T08:23:15;26.27;;;14.80;;
20861;SDS011;10591;52.532;13.348;2022-11-28T08:25:51;21.63;;;12.73;;
20861;SDS011;10591;52.532;13.348;2022-11-28T08:28:22;28.47;;;14.67;;
20861;SDS011;10591;52.532;13.348;2022-11-28T08:31:07;28.40;;;15.07;;
20861;SDS011;10591;52.532;13.348;2022-11-28T08:33:26;28.83;;;14.97;;
20861;SDS011;10591;52.532;13.348;2022-11-28T08:35:58;28.43;;;15.87;;
20861;SDS011;10591;52.532;13.348;2022-11-28T08:38:30;22.10;;;12.93;;
20861;SDS011;10591;52.532;13.348;2022-11-28T08:41:03;25.80;;;15.05;;
20861;SDS011;10591;52.532;13.348;2022-11-28T08:43:36;28.93;;;16.17;;
20861;SDS011;10591;52.532;13.348;2022-11-28T08:46:21;22.30;;;13.87;;
20861;SDS011;10591;52.532;13.348;2022-11-28T08:48:49;27.90;;;16.07;;
20861;SDS011;10591;52.532;13.348;2022-11-28T08:51:23;27.60;;;15.80;;
20861;SDS011;10591;52.532;13.348;2022-11-28T08:53:55;24.33;;;14.37;;
20861;SDS011;10591;52.532;13.348;2022-11-28T08:56:29;24.27;;;13.62;;
20861;SDS011;10591;52.532;13.348;2022-11-28T08:59:02;22.10;;;14.60;;
20861;SDS011;10591;52.532;13.348;2022-11-28T09:01:38;30.77;;;15.30;;
20861;SDS011;10591;52.532;13.348;2022-11-28T09:04:08;26.90;;;15.25;;
20861;SDS011;10591;52.532;13.348;2022-11-28T09:06:40;28.03;;;16.53;;
20861;SDS011;10591;52.532;13.348;2022-11-28T09:09:13;28.40;;;15.67;;
20861;SDS011;10591;52.532;13.348;2022-11-28T09:11:43;28.30;;;14.97;;
20861;SDS011;10591;52.532;13.348;2022-11-28T09:14:16;29.10;;;17.20;;
20861;SDS011;10591;52.532;13.348;2022-11-28T09:16:47;27.23;;;16.30;;
20861;SDS011;10591;52.532;13.348;2022-11-28T09:19:22;28.97;;;15.50;;
20861;SDS011;10591;52.532;13.348;2022-11-28T09:21:53;25.03;;;14.40;;
20861;SDS011;10591;52.532;13.348;2022-11-28T09:24:25;25.68;;;15.10;;
20861;SDS011;10591;52.532;13.348;2022-11-28T09:26:58;25.90;;;14.77;;
20861;SDS011;10591;52.532;13.348;2022-11-28T09:29:30;25.67;;;14.80;;
20861;SDS011;10591;52.532;13.348;2022-11-28T09:32:02;28.05;;;15.70;;
20861;SDS011;10591;52.532;13.348;2022-11-28T09:34:33;25.08;;;14.30;;
20861;SDS011;10591;52.532;13.348;2022-11-28T09:37:04;24.53;;;14.80;;
20861;SDS011;10591;52.532;13.348;2022-11-28T09:39:35;26.53;;;15.37;;
20861;SDS011;10591;52.532;13.348;2022-11-28T09:42:27;24.30;;;14.83;;
20861;SDS011;10591;52.532;13.348;2022-11-28T09:45:06;27.07;;;16.10;;
20861;SDS011;10591;52.532;13.348;2022-11-28T09:47:46;26.03;;;15.47;;
20861;SDS011;10591;52.532;13.348;2022-11-28T09:50:22;26.17;;;15.70;;
20861;SDS011;10591;52.532;13.348;2022-11-28T09:55:34;25.70;;;16.00;;
20861;SDS011;10591;52.532;13.348;2022-11-28T09:58:16;27.52;;;14.65;;
20861;SDS011;10591;52.532;13.348;2022-11-28T10:01:19;29.32;;;16.97;;
20861;SDS011;10591;52.532;13.348;2022-11-28T10:09:25;27.30;;;16.00;;
20861;SDS011;10591;52.532;13.348;2022-11-28T10:14:45;25.90;;;15.70;;
20861;SDS011;10591;52.532;13.348;2022-11-28T10:20:11;24.03;;;14.73;;
20861;SDS011;10591;52.532;13.348;2022-11-28T10:25:29;27.85;;;16.37;;
20861;SDS011;10591;52.532;13.348;2022-11-28T10:28:06;25.75;;;16.25;;
20861;SDS011;10591;52.532;13.348;2022-11-28T10:30:45;25.33;;;14.03;;
20861;SDS011;10591;52.532;13.348;2022-11-28T10:33:18;21.02;;;13.78;;
20861;SDS011;10591;52.532;13.348;2022-11-28T10:35:58;26.90;;;15.53;;
20861;SDS011;10591;52.532;13.348;2022-11-28T10:38:31;27.53;;;14.97;;
20861;SDS011;10591;52.532;13.348;2022-11-28T10:41:17;28.07;;;15.27;;
20861;SDS011;10591;52.532;13.348;2022-11-28T10:44:25;24.73;;;15.20;;
20861;SDS011;10591;52.532;13.348;2022-11-28T10:49:48;28.30;;;15.90;;
20861;SDS011;10591;52.532;13.348;2022-11-28T10:52:20;27.50;;;16.10;;
20861;SDS011;10591;52.532;13.348;2022-11-28T11:00:28;29.30;;;15.80;;
20861;SDS011;10591;52.532;13.348;2022-11-28T11:03:00;26.10;;;14.20;;
20861;SDS011;10591;52.532;13.348;2022-11-28T11:05:32;26.07;;;14.40;;
20861;SDS011;10591;52.532;13.348;2022-11-28T11:08:16;27.70;;;14.87;;
20861;SDS011;10591;52.532;13.348;2022-11-28T11:13:33;28.23;;;16.15;;
20861;SDS011;10591;52.532;13.348;2022-11-28T11:16:06;30.03;;;16.23;;
20861;SDS011;10591;52.532;13.348;2022-11-28T11:18:51;25.00;;;16.20;;
20861;SDS011;10591;52.532;13.348;2022-11-28T11:21:16;28.03;;;16.00;;
20861;SDS011;10591;52.532;13.348;2022-11-28T11:26:46;27.60;;;16.80;;
20861;SDS011;10591;52.532;13.348;2022-11-28T11:29:19;25.70;;;16.00;;
20861;SDS011;10591;52.532;13.348;2022-11-28T11:31:52;26.25;;;15.48;;
20861;SDS011;10591;52.532;13.348;2022-11-28T11:34:23;25.73;;;15.87;;
20861;SDS011;10591;52.532;13.348;2022-11-28T11:37:15;23.38;;;13.98;;
20861;SDS011;10591;52.532;13.348;2022-11-28T11:39:49;23.15;;;14.33;;
20861;SDS011;10591;52.532;13.348;2022-11-28T11:42:24;22.30;;;15.23;;
20861;SDS011;10591;52.532;13.348;2022-11-28T11:45:43;25.50;;;14.85;;
20861;SDS011;10591;52.532;13.348;2022-11-28T11:47:46;20.90;;;13.25;;
20861;SDS011;10591;52.532;13.348;2022-11-28T11:50:17;25.50;;;14.70;;
20861;SDS011;10591;52.532;13.348;2022-11-28T11:55:48;24.47;;;14.60;;
20861;SDS011;10591;52.532;13.348;2022-11-28T11:58:22;23.62;;;14.53;;
20861;SDS011;10591;52.532;13.348;2022-11-28T12:00:55;23.83;;;14.25;;
20861;SDS011;10591;52.532;13.348;2022-11-28T12:03:34;25.23;;;14.85;;
20861;SDS011;10591;52.532;13.348;2022-11-28T12:06:09;23.87;;;14.68;;
20861;SDS011;10591;52.532;13.348;2022-11-28T12:08:46;22.52;;;14.38;;
20861;SDS011;10591;52.532;13.348;2022-11-28T12:14:02;22.55;;;14.78;;
20861;SDS011;10591;52.532;13.348;2022-11-28T12:19:47;22.55;;;13.65;;
20861;SDS011;10591;52.532;13.348;2022-11-28T12:22:24;24.77;;;15.38;;
20861;SDS011;10591;52.532;13.348;2022-11-28T12:24:58;25.10;;;15.10;;
20861;SDS011;10591;52.532;13.348;2022-11-28T12:27:33;23.85;;;14.53;;
20861;SDS011;10591;52.532;13.348;2022-11-28T12:30:15;23.10;;;14.20;;
20861;SDS011;10591;52.532;13.348;2022-11-28T12:35:43;20.97;;;13.13;;
20861;SDS011;10591;52.532;13.348;2022-11-28T12:38:37;23.75;;;14.50;;
20861;SDS011;10591;52.532;13.348;2022-11-28T12:47:09;20.57;;;13.55;;
20861;SDS011;10591;52.532;13.348;2022-11-28T12:49:46;23.47;;;14.10;;
20861;SDS011;10591;52.532;13.348;2022-11-28T12:55:17;23.85;;;14.55;;
20861;SDS011;10591;52.532;13.348;2022-11-28T13:01:05;25.95;;;14.03;;
20861;SDS011;10591;52.532;13.348;2022-11-28T13:06:35;22.95;;;14.90;;
20861;SDS011;10591;52.532;13.348;2022-11-28T13:12:18;26.57;;;15.30;;
20861;SDS011;10591;52.532;13.348;2022-11-28T13:15:02;28.23;;;16.27;;
20861;SDS011;10591;52.532;13.348;2022-11-28T13:20:24;21.97;;;13.95;;
20861;SDS011;10591;52.532;13.348;2022-11-28T13:23:02;23.55;;;14.40;;
20861;SDS011;10591;52.532;13.348;2022-11-28T13:28:18;22.37;;;14.55;;
20861;SDS011;10591;52.532;13.348;2022-11-28T13:30:49;28.50;;;16.07;;
20861;SDS011;10591;52.532;13.348;2022-11-28T13:33:27;28.83;;;15.10;;
20861;SDS011;10591;52.532;13.348;2022-11-28T13:36:05;26.50;;;14.80;;
20861;SDS011;10591;52.532;13.348;2022-11-28T13:38:53;27.73;;;16.27;;
20861;SDS011;10591;52.532;13.348;2022-11-28T13:44:16;27.25;;;16.02;;
20861;SDS011;10591;52.532;13.348;2022-11-28T13:46:44;25.43;;;15.87;;
20861;SDS011;10591;52.532;13.348;2022-11-28T13:49:25;27.62;;;15.55;;
20861;SDS011;10591;52.532;13.348;2022-11-28T13:52:29;27.03;;;16.00;;
20861;SDS011;10591;52.532;13.348;2022-11-28T13:57:34;25.85;;;15.98;;
20861;SDS011;10591;52.532;13.348;2022-11-28T14:00:03;26.33;;;17.17;;
20861;SDS011;10591;52.532;13.348;2022-11-28T14:02:38;27.15;;;16.07;;
20861;SDS011;10591;52.532;13.348;2022-11-28T14:05:23;28.67;;;16.50;;
20861;SDS011;10591;52.532;13.348;2022-11-28T14:08:04;28.62;;;16.32;;
20861;SDS011;10591;52.532;13.348;2022-11-28T14:13:24;27.77;;;17.33;;
20861;SDS011;10591;52.532;13.348;2022-11-28T14:16:02;30.72;;;18.80;;
20861;SDS011;10591;52.532;13.348;2022-11-28T14:24:30;36.57;;;21.83;;
20861;SDS011;10591;52.532;13.348;2022-11-28T14:27:18;37.30;;;21.33;;
20861;SDS011;10591;52.532;13.348;2022-11-28T14:29:53;36.33;;;21.15;;
20861;SDS011;10591;52.532;13.348;2022-11-28T14:32:28;38.50;;;21.87;;
20861;SDS011;10591;52.532;13.348;2022-11-28T14:35:03;39.00;;;22.45;;
20861;SDS011;10591;52.532;13.348;2022-11-28T14:37:35;38.50;;;22.40;;
20861;SDS011;10591;52.532;13.348;2022-11-28T14:46:21;37.40;;;22.07;;
20861;SDS011;10591;52.532;13.348;2022-11-28T14:54:38;40.93;;;24.67;;
20861;SDS011;10591;52.532;13.348;2022-11-28T14:57:21;39.63;;;23.43;;
20861;SDS011;10591;52.532;13.348;2022-11-28T15:00:06;39.65;;;23.32;;
20861;SDS011;10591;52.532;13.348;2022-11-28T15:02:48;38.07;;;23.40;;
20861;SDS011;10591;52.532;13.348;2022-11-28T15:11:18;35.97;;;21.83;;
20861;SDS011;10591;52.532;13.348;2022-11-28T15:15:58;38.97;;;22.60;;
20861;SDS011;10591;52.532;13.348;2022-11-28T15:18:32;39.17;;;22.77;;
20861;SDS011;10591;52.532;13.348;2022-11-28T15:21:05;38.60;;;23.70;;
20861;SDS011;10591;52.532;13.348;2022-11-28T15:23:37;39.80;;;23.90;;
20861;SDS011;10591;52.532;13.348;2022-11-28T15:26:21;39.20;;;24.50;;
20861;SDS011;10591;52.532;13.348;2022-11-28T15:28:58;38.45;;;22.37;;
20861;SDS011;10591;52.532;13.348;2022-11-28T15:31:22;36.05;;;23.55;;
20861;SDS011;10591;52.532;13.348;2022-11-28T15:33:53;40.40;;;23.87;;
20861;SDS011;10591;52.532;13.348;2022-11-28T15:36:29;40.30;;;22.87;;
20861;SDS011;10591;52.532;13.348;2022-11-28T15:38:56;39.83;;;23.37;;
20861;SDS011;10591;52.532;13.348;2022-11-28T15:41:27;42.03;;;24.40;;
20861;SDS011;10591;52.532;13.348;2022-11-28T15:43:58;40.80;;;23.77;;
20861;SDS011;10591;52.532;13.348;2022-11-28T15:46:30;41.60;;;23.43;;
20861;SDS011;10591;52.532;13.348;2022-11-28T15:49:02;41.00;;;24.27;;
20861;SDS011;10591;52.532;13.348;2022-11-28T15:51:35;41.27;;;22.17;;
20861;SDS011;10591;52.532;13.348;2022-11-28T15:54:20;42.25;;;23.62;;
20861;SDS011;10591;52.532;13.348;2022-11-28T15:56:58;38.07;;;23.10;;
20861;SDS011;10591;52.532;13.348;2022-11-28T15:59:29;43.28;;;22.73;;
20861;SDS011;10591;52.532;13.348;2022-11-28T16:02:47;38.40;;;22.90;;
20861;SDS011;10591;52.532;13.348;2022-11-28T16:04:38;41.93;;;23.20;;
20861;SDS011;10591;52.532;13.348;2022-11-28T16:07:11;38.33;;;22.42;;
20861;SDS011;10591;52.532;13.348;2022-11-28T16:09:52;37.20;;;22.55;;
20861;SDS011;10591;52.532;13.348;2022-11-28T16:12:25;43.73;;;23.10;;
20861;SDS011;10591;52.532;13.348;2022-11-28T16:14:58;39.42;;;23.40;;
20861;SDS011;10591;52.532;13.348;2022-11-28T16:17:33;40.93;;;23.20;;
20861;SDS011;10591;52.532;13.348;2022-11-28T16:20:04;38.83;;;22.02;;
20861;SDS011;10591;52.532;13.348;2022-11-28T16:22:35;41.85;;;23.52;;
20861;SDS011;10591;52.532;13.348;2022-11-28T16:25:11;42.08;;;23.15;;
20861;SDS011;10591;52.532;13.348;2022-11-28T16:27:42;43.07;;;24.10;;
20861;SDS011;10591;52.532;13.348;2022-11-28T16:36:20;42.10;;;23.57;;
20861;SDS011;10591;52.532;13.348;2022-11-28T16:42:04;38.90;;;23.53;;
20861;SDS011;10591;52.532;13.348;2022-11-28T16:44:23;41.00;;;22.50;;
20861;SDS011;10591;52.532;13.348;2022-11-28T16:46:56;36.93;;;23.63;;
20861;SDS011;10591;52.532;13.348;2022-11-28T16:54:53;42.00;;;23.97;;
20861;SDS011;10591;52.532;13.348;2022-11-28T16:57:24;44.73;;;24.97;;
20861;SDS011;10591;52.532;13.348;2022-11-28T17:00:00;42.43;;;24.50;;
20861;SDS011;10591;52.532;13.348;2022-11-28T17:02:32;38.50;;;21.83;;
20861;SDS011;10591;52.532;13.348;2022-11-28T17:05:07;44.83;;;24.20;;
20861;SDS011;10591;52.532;13.348;2022-11-28T17:07:37;44.30;;;24.23;;
20861;SDS011;10591;52.532;13.348;2022-11-28T17:10:10;43.60;;;24.20;;
20861;SDS011;10591;52.532;13.348;2022-11-28T17:12:43;47.25;;;24.47;;
20861;SDS011;10591;52.532;13.348;2022-11-28T17:15:16;43.73;;;24.97;;
20861;SDS011;10591;52.532;13.348;2022-11-28T17:17:50;41.28;;;24.45;;
20861;SDS011;10591;52.532;13.348;2022-11-28T17:20:22;42.33;;;24.70;;